CheckWX is a tool to help pilots better visualize weather data.  It is not intended as a substitute for an official pre-flight weather briefing.

02:37:50 UTC

VTCC METAR
Chiang Mai International Airport
Chiang Mai, Thailand
Current

38 mins ago

VTCC 080200Z 19004KT 140V230 9999 FEW020 BKN035 27/24 Q1011 NOSIG
Observed
Jul-8 @ 02:00 UTC
Wind
  • 190° at 4 KTS
Visibility
10,000+ meters
Flight Rules
VFR
Cloud Levels
  • Few at 2,000' AGL
  • Broken at 3,500' AGL
Temperature
27°C / 81°F
Dewpoint
24°C / 75°F
Humidity
84%
Altimeter
29.85" Hg
Pressure
1010.92 hPa
Previous

1 hour ago

VTCC 080130Z 21005KT 9999 FEW010 BKN032 26/24 Q1010 NOSIG
Observed
Jul-8 @ 01:30 UTC
Wind
  • 210° at 5 KTS
Visibility
10,000+ meters
Flight Rules
VFR
Cloud Levels
  • Few at 1,000' AGL
  • Broken at 3,200' AGL
Temperature
26°C / 79°F
Dewpoint
24°C / 75°F
Humidity
89%
Altimeter
29.82" Hg
Pressure
1009.92 hPa
Previous

2 hours ago

VTCC 080100Z 23003KT 190V280 9999 FEW010 BKN032 26/24 Q1010 NOSIG
Observed
Jul-8 @ 01:00 UTC
Wind
  • 230° at 3 KTS
Visibility
10,000+ meters
Flight Rules
VFR
Cloud Levels
  • Few at 1,000' AGL
  • Broken at 3,200' AGL
Temperature
26°C / 79°F
Dewpoint
24°C / 75°F
Humidity
89%
Altimeter
29.82" Hg
Pressure
1009.92 hPa